Terminal Aerodrome Forecast
Issued by NWS Wichita, KS

Home | Current Version | Previous Version | Text Only | Print | Product List | Glossary On
Versions: 1 2 3 4 5 6 7 8 9 10 11 12 13 14 15 16 17 18 19 20 21 22 23 24 25
007
FTUS43 KICT 291352 AAB
TAFICT
TAF AMD
KICT 291352Z 2914/3012 17013KT P6SM SCT025 BKN100
      TEMPO 2914/2916 BKN025
     FM291600 18017G26KT P6SM SKC
     FM291900 18020G30KT P6SM SCT050 SCT250
     FM300100 17012KT P6SM VCTS SCT050CB=

USA.gov is the U.S. government's official web portal to all federal, state and local government web resources and services.